LXJ651 KMSP-KOWB
Flight info
| Callsign | LXJ651 |
|---|---|
| Flight time | 1h 12m |
| Altitude | 41000 |
| Route | ZMBRO7 ODI J30 SIBER JARKE |
| Aircraft | GLF6/M-SBDE2E3FGHIJ4J5M1RWXY/LB1D1 |
Departure
| Time | 2026-05-07 03:04 |
|---|---|
| Airport | Minneapolis–Saint Paul International Airport / Wold–Chamberlain Field (KMSP) |
Arrival
| Time | 2026-05-07 04:17 |
|---|---|
| Airport | Owensboro Daviess County Airport (KOWB) |
| Time | Latitude | Longitude | Altitude | Speed | Heading |
|---|---|---|---|---|---|
| 2026-05-07 02:52 | 44.87728 | -93.21806 | 830 ft | 0 kts | 270° |
| 2026-05-07 02:58 | 44.87741 | -93.21848 | 826 ft | 7 kts | 331° |
| 2026-05-07 02:58 | 44.87783 | -93.21827 | 828 ft | 9 kts | 50° |
| 2026-05-07 02:58 | 44.87785 | -93.21732 | 830 ft | 10 kts | 94° |
| 2026-05-07 02:58 | 44.87815 | -93.21639 | 830 ft | 12 kts | 43° |
| 2026-05-07 02:59 | 44.87840 | -93.21539 | 829 ft | 12 kts | 119° |
| 2026-05-07 02:59 | 44.87793 | -93.21431 | 827 ft | 16 kts | 121° |
| 2026-05-07 02:59 | 44.87732 | -93.21290 | 828 ft | 17 kts | 121° |
| 2026-05-07 02:59 | 44.87672 | -93.21152 | 829 ft | 16 kts | 121° |
| 2026-05-07 03:00 | 44.87613 | -93.21016 | 828 ft | 16 kts | 121° |
| 2026-05-07 03:00 | 44.87555 | -93.20883 | 828 ft | 16 kts | 122° |
| 2026-05-07 03:00 | 44.87497 | -93.20753 | 827 ft | 16 kts | 126° |
| 2026-05-07 03:00 | 44.87410 | -93.20654 | 823 ft | 16 kts | 143° |
| 2026-05-07 03:01 | 44.87336 | -93.20524 | 828 ft | 18 kts | 121° |
| 2026-05-07 03:01 | 44.87272 | -93.20377 | 829 ft | 17 kts | 121° |
| 2026-05-07 03:01 | 44.87239 | -93.20253 | 829 ft | 11 kts | 71° |
| 2026-05-07 03:01 | 44.87271 | -93.20212 | 827 ft | 0 kts | 31° |
| 2026-05-07 03:03 | 44.87332 | -93.20163 | 824 ft | 16 kts | 18° |
| 2026-05-07 03:03 | 44.87412 | -93.20262 | 821 ft | 26 kts | 301° |
| 2026-05-07 03:04 | 44.87636 | -93.20779 | 824 ft | 98 kts | 301° |
| 2026-05-07 03:04 | 44.88107 | -93.21861 | 874 ft | 154 kts | 301° |
| 2026-05-07 03:04 | 44.88697 | -93.23244 | 1497 ft | 175 kts | 299° |
| 2026-05-07 03:04 | 44.89093 | -93.24944 | 2328 ft | 182 kts | 277° |
| 2026-05-07 03:05 | 44.88842 | -93.26667 | 3083 ft | 184 kts | 240° |
| 2026-05-07 03:05 | 44.87914 | -93.27896 | 4128 ft | 192 kts | 221° |
| 2026-05-07 03:05 | 44.86794 | -93.29080 | 4992 ft | 208 kts | 220° |
| 2026-05-07 03:05 | 44.85595 | -93.30355 | 6036 ft | 224 kts | 220° |
| 2026-05-07 03:06 | 44.84279 | -93.31672 | 7068 ft | 242 kts | 214° |
| 2026-05-07 03:06 | 44.82584 | -93.32273 | 8098 ft | 269 kts | 183° |
| 2026-05-07 03:06 | 44.80699 | -93.31603 | 9209 ft | 282 kts | 160° |
| 2026-05-07 03:06 | 44.79025 | -93.30080 | 10260 ft | 305 kts | 139° |
| 2026-05-07 03:07 | 44.77681 | -93.27747 | 11273 ft | 314 kts | 127° |
| 2026-05-07 03:07 | 44.76397 | -93.25043 | 12342 ft | 350 kts | 125° |
| 2026-05-07 03:07 | 44.74934 | -93.22097 | 13448 ft | 380 kts | 127° |
| 2026-05-07 03:07 | 44.73356 | -93.19149 | 14477 ft | 379 kts | 129° |
| 2026-05-07 03:08 | 44.71744 | -93.16119 | 15490 ft | 391 kts | 128° |
| 2026-05-07 03:08 | 44.70146 | -93.13010 | 16520 ft | 396 kts | 127° |
| 2026-05-07 03:08 | 44.68505 | -93.09829 | 17598 ft | 407 kts | 128° |
| 2026-05-07 03:08 | 44.66841 | -93.06669 | 18648 ft | 411 kts | 128° |
| 2026-05-07 03:09 | 44.65123 | -93.03404 | 19630 ft | 420 kts | 128° |
| 2026-05-07 03:09 | 44.63386 | -93.00077 | 20633 ft | 424 kts | 128° |
| 2026-05-07 03:09 | 44.61628 | -92.96713 | 21430 ft | 431 kts | 128° |
| 2026-05-07 03:09 | 44.59838 | -92.93311 | 22257 ft | 435 kts | 128° |
| 2026-05-07 03:10 | 44.58030 | -92.89877 | 23076 ft | 440 kts | 128° |
| 2026-05-07 03:10 | 44.56200 | -92.86396 | 23846 ft | 446 kts | 128° |
| 2026-05-07 03:10 | 44.54350 | -92.82882 | 24554 ft | 450 kts | 129° |
| 2026-05-07 03:10 | 44.52505 | -92.79385 | 25244 ft | 455 kts | 129° |
| 2026-05-07 03:11 | 44.50615 | -92.75808 | 25951 ft | 459 kts | 129° |
| 2026-05-07 03:11 | 44.48702 | -92.72194 | 26632 ft | 464 kts | 129° |
| 2026-05-07 03:11 | 44.46773 | -92.68547 | 27316 ft | 469 kts | 129° |
| 2026-05-07 03:11 | 44.44822 | -92.64866 | 27987 ft | 473 kts | 129° |
| 2026-05-07 03:12 | 44.42847 | -92.61149 | 28655 ft | 478 kts | 129° |
| 2026-05-07 03:12 | 44.40852 | -92.57395 | 29302 ft | 483 kts | 129° |
| 2026-05-07 03:12 | 44.38837 | -92.53608 | 29931 ft | 488 kts | 129° |
| 2026-05-07 03:12 | 44.36798 | -92.49783 | 30465 ft | 493 kts | 129° |
| 2026-05-07 03:13 | 44.34767 | -92.45975 | 30911 ft | 498 kts | 129° |
| 2026-05-07 03:13 | 44.32875 | -92.41868 | 31286 ft | 507 kts | 122° |
| 2026-05-07 03:13 | 44.31083 | -92.37609 | 31713 ft | 511 kts | 123° |
| 2026-05-07 03:13 | 44.29217 | -92.33353 | 32108 ft | 516 kts | 124° |
| 2026-05-07 03:14 | 44.27330 | -92.29061 | 32486 ft | 521 kts | 124° |
| 2026-05-07 03:14 | 44.25458 | -92.24698 | 32842 ft | 526 kts | 123° |
| 2026-05-07 03:14 | 44.21648 | -92.15886 | 33515 ft | 535 kts | 124° |
| 2026-05-07 03:15 | 44.19729 | -92.11512 | 33821 ft | 539 kts | 124° |
| 2026-05-07 03:15 | 44.17780 | -92.07026 | 34113 ft | 543 kts | 124° |
| 2026-05-07 03:15 | 44.15823 | -92.02512 | 34388 ft | 546 kts | 124° |
| 2026-05-07 03:15 | 44.13841 | -91.97984 | 34713 ft | 549 kts | 124° |
| 2026-05-07 03:16 | 44.11843 | -91.93437 | 35023 ft | 552 kts | 124° |
| 2026-05-07 03:16 | 44.09841 | -91.88866 | 35314 ft | 555 kts | 124° |
| 2026-05-07 03:16 | 44.07828 | -91.84270 | 35596 ft | 558 kts | 124° |
| 2026-05-07 03:16 | 44.05807 | -91.79672 | 35999 ft | 557 kts | 124° |
| 2026-05-07 03:17 | 44.03779 | -91.75076 | 36397 ft | 557 kts | 124° |
| 2026-05-07 03:17 | 44.01779 | -91.70542 | 36784 ft | 557 kts | 124° |
| 2026-05-07 03:17 | 43.99756 | -91.65958 | 37162 ft | 557 kts | 124° |
| 2026-05-07 03:17 | 43.97728 | -91.61376 | 37535 ft | 557 kts | 125° |
| 2026-05-07 03:18 | 43.95695 | -91.56792 | 37907 ft | 557 kts | 125° |
| 2026-05-07 03:18 | 43.93662 | -91.52214 | 38261 ft | 557 kts | 125° |
| 2026-05-07 03:18 | 43.91550 | -91.47719 | 38598 ft | 554 kts | 130° |
| 2026-05-07 03:18 | 43.89059 | -91.43681 | 38895 ft | 549 kts | 138° |
| 2026-05-07 03:19 | 43.86376 | -91.39920 | 39147 ft | 549 kts | 139° |
| 2026-05-07 03:19 | 43.83693 | -91.36155 | 39427 ft | 549 kts | 139° |
| 2026-05-07 03:19 | 43.81157 | -91.32581 | 39675 ft | 548 kts | 139° |
| 2026-05-07 03:20 | 43.78198 | -91.28435 | 39954 ft | 548 kts | 139° |
| 2026-05-07 03:20 | 43.75514 | -91.24691 | 40222 ft | 548 kts | 139° |
| 2026-05-07 03:20 | 43.72830 | -91.20941 | 40478 ft | 548 kts | 139° |
| 2026-05-07 03:20 | 43.70146 | -91.17190 | 40745 ft | 548 kts | 139° |
| 2026-05-07 03:21 | 43.67462 | -91.13451 | 40997 ft | 548 kts | 139° |
| 2026-05-07 03:21 | 43.62036 | -91.05918 | 41077 ft | 566 kts | 139° |
| 2026-05-07 03:22 | 43.56484 | -90.98201 | 41082 ft | 566 kts | 139° |
| 2026-05-07 03:22 | 43.50899 | -90.90491 | 41076 ft | 570 kts | 139° |
| 2026-05-07 03:23 | 43.45300 | -90.82757 | 41080 ft | 570 kts | 140° |
| 2026-05-07 03:23 | 43.39741 | -90.75120 | 41082 ft | 568 kts | 140° |
| 2026-05-07 03:24 | 43.34151 | -90.67450 | 41085 ft | 567 kts | 140° |
| 2026-05-07 03:24 | 43.28559 | -90.59804 | 41081 ft | 568 kts | 140° |
| 2026-05-07 03:25 | 43.22955 | -90.52161 | 41089 ft | 568 kts | 140° |
| 2026-05-07 03:25 | 43.17346 | -90.44529 | 41079 ft | 568 kts | 140° |
| 2026-05-07 03:26 | 43.11287 | -90.37934 | 41075 ft | 555 kts | 155° |
| 2026-05-07 03:26 | 43.04489 | -90.33115 | 41076 ft | 550 kts | 160° |
| 2026-05-07 03:27 | 42.97647 | -90.28409 | 41066 ft | 550 kts | 160° |
| 2026-05-07 03:27 | 42.93113 | -90.25323 | 41077 ft | 550 kts | 160° |
| 2026-05-07 03:28 | 42.90729 | -90.23700 | 41071 ft | 550 kts | 160° |
| 2026-05-07 03:28 | 42.83896 | -90.19036 | 41068 ft | 549 kts | 160° |
| 2026-05-07 03:29 | 42.77067 | -90.14402 | 41072 ft | 548 kts | 160° |
| 2026-05-07 03:29 | 42.70283 | -90.09798 | 41074 ft | 548 kts | 160° |
| 2026-05-07 03:30 | 42.63450 | -90.05182 | 41073 ft | 548 kts | 161° |
| 2026-05-07 03:30 | 42.56624 | -90.00575 | 41066 ft | 548 kts | 161° |
| 2026-05-07 03:31 | 42.49796 | -89.95983 | 41065 ft | 548 kts | 161° |
| 2026-05-07 03:31 | 42.43017 | -89.91431 | 41065 ft | 548 kts | 161° |
| 2026-05-07 03:32 | 42.36179 | -89.86853 | 41079 ft | 548 kts | 161° |
| 2026-05-07 03:32 | 42.29342 | -89.82286 | 41086 ft | 549 kts | 161° |
| 2026-05-07 03:33 | 42.22498 | -89.77726 | 41086 ft | 548 kts | 161° |
| 2026-05-07 03:33 | 42.15700 | -89.73207 | 41087 ft | 548 kts | 161° |
| 2026-05-07 03:34 | 42.08856 | -89.68670 | 41089 ft | 548 kts | 161° |
| 2026-05-07 03:34 | 42.02011 | -89.64141 | 41084 ft | 548 kts | 162° |
| 2026-05-07 03:35 | 41.95165 | -89.59624 | 41079 ft | 548 kts | 162° |
| 2026-05-07 03:35 | 41.88367 | -89.55147 | 41081 ft | 547 kts | 162° |
| 2026-05-07 03:36 | 41.81526 | -89.50655 | 41078 ft | 547 kts | 162° |
| 2026-05-07 03:36 | 41.74695 | -89.46180 | 41075 ft | 547 kts | 162° |
| 2026-05-07 03:37 | 41.67857 | -89.41710 | 41074 ft | 546 kts | 162° |
| 2026-05-07 03:37 | 41.61073 | -89.37287 | 41071 ft | 546 kts | 162° |
| 2026-05-07 03:38 | 41.54248 | -89.32845 | 41074 ft | 546 kts | 163° |
| 2026-05-07 03:38 | 41.47419 | -89.28416 | 41077 ft | 546 kts | 163° |
| 2026-05-07 03:39 | 41.40592 | -89.23993 | 41083 ft | 545 kts | 163° |
| 2026-05-07 03:39 | 41.33813 | -89.19615 | 41082 ft | 545 kts | 163° |
| 2026-05-07 03:40 | 41.26989 | -89.15217 | 41088 ft | 545 kts | 163° |
| 2026-05-07 03:40 | 41.20164 | -89.10830 | 41078 ft | 545 kts | 163° |
| 2026-05-07 03:41 | 41.13342 | -89.06452 | 41075 ft | 545 kts | 164° |
| 2026-05-07 03:41 | 41.06515 | -89.02084 | 41071 ft | 544 kts | 164° |
| 2026-05-07 03:42 | 40.99746 | -88.97761 | 41074 ft | 544 kts | 164° |
| 2026-05-07 03:42 | 40.92923 | -88.93415 | 41078 ft | 544 kts | 164° |
| 2026-05-07 03:43 | 40.87258 | -88.89814 | 41076 ft | 544 kts | 165° |
| 2026-05-07 03:43 | 40.80101 | -88.85274 | 41079 ft | 543 kts | 165° |
| 2026-05-07 03:44 | 40.73331 | -88.80990 | 41076 ft | 543 kts | 165° |
| 2026-05-07 03:44 | 40.66516 | -88.76687 | 41088 ft | 543 kts | 165° |
| 2026-05-07 03:45 | 40.59695 | -88.72389 | 41089 ft | 543 kts | 165° |
| 2026-05-07 03:45 | 40.52888 | -88.68112 | 41092 ft | 542 kts | 165° |
| 2026-05-07 03:46 | 40.46082 | -88.63843 | 41089 ft | 542 kts | 165° |
| 2026-05-07 03:46 | 40.39320 | -88.59614 | 41078 ft | 542 kts | 166° |
| 2026-05-07 03:47 | 40.32516 | -88.55364 | 41074 ft | 542 kts | 166° |
| 2026-05-07 03:47 | 40.25712 | -88.51127 | 41074 ft | 541 kts | 166° |
| 2026-05-07 03:48 | 40.18912 | -88.46900 | 41084 ft | 541 kts | 166° |
| 2026-05-07 03:48 | 40.12159 | -88.42712 | 41092 ft | 541 kts | 167° |
| 2026-05-07 03:49 | 40.05340 | -88.38673 | 41096 ft | 533 kts | 170° |
| 2026-05-07 03:49 | 39.98480 | -88.34949 | 41091 ft | 535 kts | 169° |
| 2026-05-07 03:50 | 39.91668 | -88.31224 | 41087 ft | 534 kts | 170° |
| 2026-05-07 03:50 | 39.84806 | -88.27506 | 41082 ft | 534 kts | 170° |
| 2026-05-07 03:51 | 39.77965 | -88.23793 | 41080 ft | 532 kts | 171° |
| 2026-05-07 03:51 | 39.71129 | -88.20098 | 41072 ft | 532 kts | 171° |
| 2026-05-07 03:52 | 39.64339 | -88.16432 | 41077 ft | 532 kts | 171° |
| 2026-05-07 03:52 | 39.60921 | -88.14591 | 40950 ft | 534 kts | 171° |
| 2026-05-07 03:52 | 39.57486 | -88.12745 | 40261 ft | 531 kts | 172° |
| 2026-05-07 03:52 | 39.54102 | -88.10906 | 39564 ft | 524 kts | 173° |
| 2026-05-07 03:53 | 39.50762 | -88.09107 | 38877 ft | 516 kts | 174° |
| 2026-05-07 03:53 | 39.47472 | -88.07352 | 38146 ft | 508 kts | 175° |
| 2026-05-07 03:53 | 39.44236 | -88.05618 | 37480 ft | 499 kts | 175° |
| 2026-05-07 03:53 | 39.41051 | -88.03909 | 36822 ft | 493 kts | 175° |
| 2026-05-07 03:54 | 39.37891 | -88.02227 | 36172 ft | 492 kts | 176° |
| 2026-05-07 03:54 | 39.34759 | -88.00568 | 35532 ft | 494 kts | 176° |
| 2026-05-07 03:54 | 39.31577 | -87.98866 | 34874 ft | 496 kts | 175° |
| 2026-05-07 03:54 | 39.28390 | -87.97154 | 34220 ft | 497 kts | 175° |
| 2026-05-07 03:55 | 39.25195 | -87.95451 | 33522 ft | 496 kts | 175° |
| 2026-05-07 03:55 | 39.21997 | -87.93755 | 32870 ft | 498 kts | 175° |
| 2026-05-07 03:55 | 39.18774 | -87.92050 | 32212 ft | 503 kts | 175° |
| 2026-05-07 03:55 | 39.15583 | -87.90333 | 31555 ft | 491 kts | 175° |
| 2026-05-07 03:56 | 39.12515 | -87.88678 | 30926 ft | 479 kts | 175° |
| 2026-05-07 03:56 | 39.09463 | -87.87074 | 30306 ft | 469 kts | 176° |
| 2026-05-07 03:56 | 39.06466 | -87.85508 | 29650 ft | 461 kts | 175° |
| 2026-05-07 03:56 | 39.03521 | -87.83945 | 29051 ft | 455 kts | 175° |
| 2026-05-07 03:57 | 39.00607 | -87.82397 | 28444 ft | 451 kts | 175° |
| 2026-05-07 03:57 | 38.97712 | -87.80875 | 27860 ft | 448 kts | 175° |
| 2026-05-07 03:57 | 38.94840 | -87.79361 | 27271 ft | 444 kts | 174° |
| 2026-05-07 03:57 | 38.91996 | -87.77856 | 26685 ft | 440 kts | 174° |
| 2026-05-07 03:58 | 38.89209 | -87.76387 | 26110 ft | 437 kts | 174° |
| 2026-05-07 03:58 | 38.86412 | -87.74916 | 25586 ft | 433 kts | 173° |
| 2026-05-07 03:58 | 38.83632 | -87.73455 | 25025 ft | 430 kts | 173° |
| 2026-05-07 03:58 | 38.80875 | -87.72006 | 24467 ft | 427 kts | 173° |
| 2026-05-07 03:59 | 38.78139 | -87.70568 | 23906 ft | 423 kts | 173° |
| 2026-05-07 03:59 | 38.75429 | -87.69145 | 23300 ft | 419 kts | 173° |
| 2026-05-07 03:59 | 38.72747 | -87.67735 | 22756 ft | 414 kts | 173° |
| 2026-05-07 03:59 | 38.70094 | -87.66348 | 22206 ft | 410 kts | 173° |
| 2026-05-07 04:00 | 38.67500 | -87.64993 | 21676 ft | 407 kts | 172° |
| 2026-05-07 04:00 | 38.64883 | -87.63626 | 21097 ft | 406 kts | 172° |
| 2026-05-07 04:00 | 38.62275 | -87.62261 | 20559 ft | 404 kts | 172° |
| 2026-05-07 04:00 | 38.59678 | -87.60904 | 20028 ft | 402 kts | 172° |
| 2026-05-07 04:01 | 38.57092 | -87.59556 | 19500 ft | 401 kts | 171° |
| 2026-05-07 04:01 | 38.54517 | -87.58214 | 18965 ft | 399 kts | 171° |
| 2026-05-07 04:01 | 38.51950 | -87.56875 | 18409 ft | 396 kts | 171° |
| 2026-05-07 04:01 | 38.49436 | -87.55557 | 17801 ft | 385 kts | 171° |
| 2026-05-07 04:02 | 38.46993 | -87.54279 | 17294 ft | 374 kts | 171° |
| 2026-05-07 04:02 | 38.44647 | -87.53066 | 16812 ft | 365 kts | 171° |
| 2026-05-07 04:02 | 38.42308 | -87.51860 | 16331 ft | 360 kts | 170° |
| 2026-05-07 04:02 | 38.39999 | -87.50662 | 15852 ft | 356 kts | 170° |
| 2026-05-07 04:03 | 38.37721 | -87.49476 | 15387 ft | 351 kts | 169° |
| 2026-05-07 04:03 | 38.35490 | -87.48314 | 14929 ft | 342 kts | 169° |
| 2026-05-07 04:03 | 38.33310 | -87.47186 | 14483 ft | 335 kts | 169° |
| 2026-05-07 04:03 | 38.31172 | -87.46082 | 14034 ft | 328 kts | 169° |
| 2026-05-07 04:04 | 38.29075 | -87.44999 | 13593 ft | 322 kts | 169° |
| 2026-05-07 04:04 | 38.27047 | -87.43948 | 13171 ft | 316 kts | 169° |
| 2026-05-07 04:04 | 38.25025 | -87.42905 | 12760 ft | 313 kts | 168° |
| 2026-05-07 04:04 | 38.23011 | -87.41868 | 12353 ft | 312 kts | 168° |
| 2026-05-07 04:05 | 38.21004 | -87.40835 | 11940 ft | 311 kts | 167° |
| 2026-05-07 04:05 | 38.18997 | -87.39797 | 11525 ft | 311 kts | 167° |
| 2026-05-07 04:05 | 38.16996 | -87.38765 | 11119 ft | 309 kts | 167° |
| 2026-05-07 04:05 | 38.15007 | -87.37739 | 10720 ft | 308 kts | 166° |
| 2026-05-07 04:06 | 38.13034 | -87.36723 | 10314 ft | 304 kts | 166° |
| 2026-05-07 04:06 | 38.11116 | -87.35734 | 9912 ft | 299 kts | 165° |
| 2026-05-07 04:06 | 38.09201 | -87.34750 | 9504 ft | 295 kts | 165° |
| 2026-05-07 04:06 | 38.07312 | -87.33780 | 9139 ft | 290 kts | 164° |
| 2026-05-07 04:07 | 38.05465 | -87.32827 | 8814 ft | 283 kts | 164° |
| 2026-05-07 04:07 | 38.03659 | -87.31902 | 8507 ft | 278 kts | 163° |
| 2026-05-07 04:07 | 38.01883 | -87.30993 | 8197 ft | 273 kts | 163° |
| 2026-05-07 04:07 | 38.00138 | -87.30096 | 7889 ft | 269 kts | 162° |
| 2026-05-07 04:08 | 37.98411 | -87.29210 | 7601 ft | 266 kts | 162° |
| 2026-05-07 04:08 | 37.96704 | -87.28372 | 7278 ft | 260 kts | 168° |
| 2026-05-07 04:08 | 37.94968 | -87.27988 | 6978 ft | 254 kts | 175° |
| 2026-05-07 04:08 | 37.93229 | -87.27706 | 6691 ft | 249 kts | 175° |
| 2026-05-07 04:09 | 37.91534 | -87.27454 | 6411 ft | 242 kts | 175° |
| 2026-05-07 04:09 | 37.89865 | -87.27227 | 6092 ft | 241 kts | 176° |
| 2026-05-07 04:09 | 37.88197 | -87.27013 | 5794 ft | 242 kts | 175° |
| 2026-05-07 04:09 | 37.86530 | -87.26809 | 5470 ft | 238 kts | 176° |
| 2026-05-07 04:10 | 37.84878 | -87.26621 | 5171 ft | 238 kts | 175° |
| 2026-05-07 04:10 | 37.83244 | -87.26436 | 4860 ft | 235 kts | 175° |
| 2026-05-07 04:10 | 37.81642 | -87.26280 | 4567 ft | 233 kts | 176° |
| 2026-05-07 04:10 | 37.80035 | -87.26129 | 4299 ft | 230 kts | 176° |
| 2026-05-07 04:11 | 37.78452 | -87.25974 | 4042 ft | 226 kts | 176° |
| 2026-05-07 04:11 | 37.76895 | -87.25826 | 3781 ft | 223 kts | 176° |
| 2026-05-07 04:11 | 37.75358 | -87.25676 | 3530 ft | 220 kts | 176° |
| 2026-05-07 04:11 | 37.73825 | -87.25537 | 3268 ft | 221 kts | 176° |
| 2026-05-07 04:12 | 37.72306 | -87.25402 | 3035 ft | 216 kts | 176° |
| 2026-05-07 04:12 | 37.70835 | -87.25273 | 2929 ft | 209 kts | 176° |
| 2026-05-07 04:12 | 37.69391 | -87.25149 | 2872 ft | 205 kts | 176° |
| 2026-05-07 04:12 | 37.68044 | -87.25037 | 2794 ft | 187 kts | 176° |
| 2026-05-07 04:13 | 37.66782 | -87.24881 | 2647 ft | 184 kts | 168° |
| 2026-05-07 04:13 | 37.65776 | -87.24049 | 2401 ft | 169 kts | 120° |
| 2026-05-07 04:13 | 37.65538 | -87.22691 | 2231 ft | 156 kts | 85° |
| 2026-05-07 04:13 | 37.65499 | -87.21330 | 2096 ft | 156 kts | 90° |
| 2026-05-07 04:14 | 37.65419 | -87.19966 | 1951 ft | 155 kts | 89° |
| 2026-05-07 04:14 | 37.65400 | -87.18648 | 1932 ft | 140 kts | 77° |
| 2026-05-07 04:14 | 37.65783 | -87.17556 | 1953 ft | 140 kts | 51° |
| 2026-05-07 04:14 | 37.66461 | -87.16772 | 1825 ft | 135 kts | 27° |
| 2026-05-07 04:15 | 37.67327 | -87.16458 | 1668 ft | 126 kts | 6° |
| 2026-05-07 04:15 | 37.68212 | -87.16450 | 1548 ft | 130 kts | 358° |
| 2026-05-07 04:15 | 37.69128 | -87.16510 | 1410 ft | 133 kts | 357° |
| 2026-05-07 04:15 | 37.70034 | -87.16572 | 1191 ft | 126 kts | 358° |
| 2026-05-07 04:16 | 37.70892 | -87.16597 | 991 ft | 121 kts | 358° |
| 2026-05-07 04:16 | 37.71731 | -87.16632 | 769 ft | 121 kts | 358° |
| 2026-05-07 04:16 | 37.72568 | -87.16667 | 553 ft | 123 kts | 358° |
| 2026-05-07 04:16 | 37.73397 | -87.16707 | 413 ft | 112 kts | 357° |
| 2026-05-07 04:17 | 37.74016 | -87.16735 | 406 ft | 45 kts | 358° |
| 2026-05-07 04:17 | 37.74156 | -87.16709 | 409 ft | 14 kts | 43° |
| 2026-05-07 04:17 | 37.74215 | -87.16618 | 406 ft | 5 kts | 51° |
| 2026-05-07 04:17 | 37.74227 | -87.16570 | 407 ft | 8 kts | 135° |
| 2026-05-07 04:18 | 37.74145 | -87.16558 | 407 ft | 16 kts | 176° |
| 2026-05-07 04:18 | 37.74025 | -87.16552 | 407 ft | 19 kts | 178° |
| 2026-05-07 04:18 | 37.73887 | -87.16546 | 402 ft | 21 kts | 178° |
| 2026-05-07 04:18 | 37.73791 | -87.16533 | 406 ft | 11 kts | 147° |
| 2026-05-07 04:19 | 37.73775 | -87.16439 | 406 ft | 9 kts | 122° |
| 2026-05-07 04:19 | 37.73724 | -87.16438 | 406 ft | 8 kts | 195° |
| 2026-05-07 04:19 | 37.73709 | -87.16427 | 400 ft | 2 kts | 88° |